Time;durP1;ratioP1;P1;durP2;ratioP2;P2;SDS_P1;SDS_P2;PMS_P1;PMS_P2;Temp;Humidity;BMP_temperature;BMP_pressure;BME280_temperature;BME280_humidity;BME280_pressure;Samples;Min_cycle;Max_cycle;Signal;HPM_P1;HPM_P2
2023/03/04 00:03:09;;;;;;;76.77;22.97;;;;;;;-3.11;100.00;96909.81;10329261;28;20222;-59
2023/03/04 00:08:10;;;;;;;75.90;21.17;;;;;;;-3.10;100.00;96900.38;10330480;28;20209;-61
2023/03/04 00:13:10;;;;;;;62.77;18.23;;;;;;;-3.03;100.00;96909.47;10329472;28;20249;-59
2023/03/04 00:18:10;;;;;;;74.43;21.13;;;;;;;-3.00;100.00;96913.63;10329924;28;20198;-57
2023/03/04 00:23:11;;;;;;;63.17;20.00;;;;;;;-2.99;100.00;96903.28;10392936;22;20255;-63
2023/03/04 00:28:11;;;;;;;60.47;16.43;;;;;;;-3.03;100.00;96904.34;10411070;28;20193;-63
2023/03/04 00:33:12;;;;;;;79.53;22.63;;;;;;;-2.93;100.00;96892.78;10411446;28;20300;-63
2023/03/04 00:38:13;;;;;;;70.43;22.70;;;;;;;-2.96;100.00;96890.34;10426229;28;20276;-64
2023/03/04 00:43:13;;;;;;;66.43;18.57;;;;;;;-2.90;100.00;96895.19;10411013;28;20219;-62
2023/03/04 00:48:15;;;;;;;78.03;23.00;;;;;;;-2.91;100.00;96891.00;10426210;28;20184;-63
2023/03/04 00:53:15;;;;;;;64.37;22.90;;;;;;;-2.89;100.00;96884.06;10410046;28;20220;-63
2023/03/04 00:58:16;;;;;;;67.13;22.87;;;;;;;-2.88;100.00;96880.59;10411617;28;20642;-64
2023/03/04 01:03:16;;;;;;;68.67;22.53;;;;;;;-2.77;100.00;96877.53;10419090;28;20627;-65
2023/03/04 01:08:16;;;;;;;61.03;21.40;;;;;;;-2.82;100.00;96869.22;10418920;28;20280;-66
2023/03/04 01:13:17;;;;;;;54.50;17.23;;;;;;;-2.85;100.00;96864.22;10418848;28;20230;-64
2023/03/04 01:18:17;;;;;;;64.87;22.57;;;;;;;-2.71;100.00;96855.91;10418531;28;20192;-65
2023/03/04 01:23:18;;;;;;;66.23;23.37;;;;;;;-2.76;100.00;96843.28;10418201;28;20702;-65
2023/03/04 01:28:18;;;;;;;64.80;25.47;;;;;;;-2.80;100.00;96844.34;10418051;28;20707;-64
2023/03/04 01:33:18;;;;;;;52.97;19.93;;;;;;;-2.65;100.00;96831.72;10416253;28;20702;-65
2023/03/04 01:38:19;;;;;;;56.23;21.53;;;;;;;-2.66;100.00;96827.47;10392092;28;20711;-63
2023/03/04 01:43:24;;;;;;;60.13;21.90;;;;;;;-2.66;100.00;96817.22;10391523;28;20702;-64
2023/03/04 01:48:32;;;;;;;58.87;21.17;;;;;;;-2.60;100.00;96806.69;10376412;28;20186;-62
2023/03/04 01:53:33;;;;;;;55.57;22.30;;;;;;;-2.53;100.00;96808.91;10374516;28;20213;-63
2023/03/04 01:58:33;;;;;;;51.37;20.87;;;;;;;-2.55;100.00;96797.88;10376355;28;20189;-64
2023/03/04 02:03:33;;;;;;;62.63;23.60;;;;;;;-2.58;100.00;96795.44;10409194;28;20291;-64
2023/03/04 02:08:35;;;;;;;54.00;22.70;;;;;;;-2.54;100.00;96781.59;10415386;28;20223;-64
2023/03/04 02:13:35;;;;;;;63.10;25.93;;;;;;;-2.57;100.00;96783.47;10398397;28;20774;-64
2023/03/04 02:18:36;;;;;;;67.10;24.17;;;;;;;-2.47;100.00;96776.97;10416097;28;20184;-64
2023/03/04 02:24:01;;;;;;;63.00;25.17;;;;;;;-2.34;100.00;96775.47;10415988;28;20240;-62
2023/03/04 02:29:03;;;;;;;61.97;25.60;;;;;;;-2.37;100.00;96767.94;10414286;28;20188;-65
2023/03/04 02:34:06;;;;;;;64.60;24.53;;;;;;;-2.29;100.00;96764.16;10414414;28;20228;-64
2023/03/04 02:39:12;;;;;;;66.90;25.43;;;;;;;-2.25;100.00;96758.81;10414451;28;20192;-64
2023/03/04 02:44:22;;;;;;;59.23;25.00;;;;;;;-2.24;100.00;96752.75;10406632;28;20250;-64
2023/03/04 02:49:24;;;;;;;58.00;24.43;;;;;;;-2.26;100.00;96741.75;10408373;28;20619;-64
2023/03/04 02:54:25;;;;;;;54.30;24.67;;;;;;;-2.16;100.00;96742.94;10406543;28;20229;-65
2023/03/04 02:59:26;;;;;;;50.50;22.77;;;;;;;-2.05;100.00;96737.28;10413588;28;20188;-66
2023/03/04 03:04:27;;;;;;;50.57;22.90;;;;;;;-2.03;100.00;96732.88;10413202;28;20209;-65
2023/03/04 03:09:28;;;;;;;51.07;25.43;;;;;;;-2.37;100.00;96729.44;10414304;28;20185;-66
2023/03/04 03:14:30;;;;;;;49.03;22.57;;;;;;;-2.07;100.00;96726.22;10412792;28;20609;-65
2023/03/04 03:19:30;;;;;;;49.73;22.40;;;;;;;-2.05;100.00;96721.88;10411969;28;20280;-65
2023/03/04 03:24:31;;;;;;;46.03;24.23;;;;;;;-2.35;100.00;96712.25;10412904;28;20228;-66
2023/03/04 03:29:31;;;;;;;42.57;21.37;;;;;;;-2.35;100.00;96709.66;10413247;28;20654;-66
2023/03/04 03:34:33;;;;;;;44.27;20.00;;;;;;;-2.26;100.00;96713.53;10412163;28;20217;-65
2023/03/04 03:39:33;;;;;;;31.50;16.50;;;;;;;-2.28;100.00;96705.09;10413042;28;20532;-66
2023/03/04 03:44:34;;;;;;;31.93;16.03;;;;;;;-2.21;100.00;96718.41;10412448;28;20204;-65
2023/03/04 03:49:34;;;;;;;34.67;17.90;;;;;;;-2.28;100.00;96717.91;10412988;28;20287;-66
2023/03/04 03:54:35;;;;;;;35.37;16.37;;;;;;;-2.15;100.00;96720.66;10412212;28;20251;-65
2023/03/04 03:59:35;;;;;;;35.67;18.27;;;;;;;-2.41;100.00;96725.38;10422301;28;20203;-64
2023/03/04 04:04:35;;;;;;;31.37;15.43;;;;;;;-2.27;100.00;96716.97;10429288;28;20564;-65
2023/03/04 04:09:36;;;;;;;33.93;15.60;;;;;;;-2.29;100.00;96721.38;10412144;28;20734;-66
2023/03/04 04:14:36;;;;;;;33.33;15.73;;;;;;;-2.26;100.00;96723.78;10411141;28;20236;-64
2023/03/04 04:19:39;;;;;;;35.17;17.43;;;;;;;-2.40;100.00;96715.97;10411648;28;20279;-65
2023/03/04 04:24:39;;;;;;;39.37;18.03;;;;;;;-2.32;100.00;96726.66;10410712;28;20653;-66
2023/03/04 04:29:40;;;;;;;38.97;18.17;;;;;;;-2.46;100.00;96734.22;10410869;28;20196;-65
2023/03/04 04:34:40;;;;;;;39.50;17.50;;;;;;;-2.24;100.00;96728.84;10411178;28;20224;-66
2023/03/04 04:39:40;;;;;;;40.10;19.00;;;;;;;-2.52;100.00;96725.91;10411069;28;20192;-64
2023/03/04 04:44:41;;;;;;;44.90;20.63;;;;;;;-2.37;100.00;96728.63;10411169;28;20208;-64
2023/03/04 04:49:41;;;;;;;40.20;17.80;;;;;;;-2.22;100.00;96722.72;10411237;28;20206;-65
2023/03/04 04:54:41;;;;;;;37.00;18.10;;;;;;;-2.17;100.00;96712.22;10410960;28;20306;-64
2023/03/04 04:59:42;;;;;;;40.40;17.77;;;;;;;-2.24;100.00;96711.69;10410891;28;20231;-65
2023/03/04 05:04:42;;;;;;;42.27;19.30;;;;;;;-2.07;100.00;96712.56;10410783;28;20212;-65
2023/03/04 05:09:42;;;;;;;48.17;20.03;;;;;;;-1.98;100.00;96704.41;10410866;28;20304;-65
2023/03/04 05:14:43;;;;;;;42.20;20.13;;;;;;;-1.94;100.00;96711.06;10410472;28;20228;-65
2023/03/04 05:19:43;;;;;;;43.20;21.43;;;;;;;-2.05;100.00;96703.06;10411276;28;20271;-65
2023/03/04 05:24:43;;;;;;;41.37;18.73;;;;;;;-1.91;100.00;96717.78;10410170;28;20290;-63
2023/03/04 05:29:45;;;;;;;39.00;18.70;;;;;;;-1.86;100.00;96708.91;10410570;28;20193;-65
2023/03/04 05:34:45;;;;;;;35.27;18.10;;;;;;;-1.76;100.00;96700.72;10409909;28;20247;-66
2023/03/04 05:39:46;;;;;;;43.17;20.53;;;;;;;-1.83;100.00;96706.16;10410211;28;20223;-65
2023/03/04 05:44:46;;;;;;;37.40;18.77;;;;;;;-1.70;100.00;96708.94;10411470;28;20212;-65
2023/03/04 05:49:47;;;;;;;31.53;18.93;;;;;;;-1.77;100.00;96702.47;10417283;28;20335;-65
2023/03/04 05:54:47;;;;;;;41.77;19.17;;;;;;;-1.59;100.00;96702.38;10417654;28;20225;-65
2023/03/04 05:59:47;;;;;;;36.07;18.70;;;;;;;-1.56;100.00;96705.66;10416903;28;20270;-64
2023/03/04 06:04:48;;;;;;;32.60;17.20;;;;;;;-1.58;100.00;96704.88;10417173;28;20204;-66
2023/03/04 06:09:48;;;;;;;30.50;15.43;;;;;;;-1.55;100.00;96702.13;10416525;28;20192;-64
2023/03/04 06:14:48;;;;;;;43.20;17.77;;;;;;;-1.53;100.00;96705.47;10416565;28;20729;-65
2023/03/04 06:19:49;;;;;;;32.83;17.73;;;;;;;-1.62;100.00;96703.41;10416188;28;20670;-64
2023/03/04 06:24:49;;;;;;;29.93;16.47;;;;;;;-1.51;100.00;96705.41;10415779;28;20316;-64
2023/03/04 06:29:52;;;;;;;37.10;17.43;;;;;;;-1.59;100.00;96700.66;10416150;28;20201;-64
2023/03/04 06:34:53;;;;;;;32.67;17.37;;;;;;;-1.65;100.00;96701.00;10436013;23;20719;-61
2023/03/04 06:39:54;;;;;;;45.27;16.70;;;;;;;-1.60;100.00;96704.13;10415435;28;20200;-61
2023/03/04 06:44:55;;;;;;;42.97;17.20;;;;;;;-1.52;100.00;96690.88;10415253;28;20276;-58
2023/03/04 06:49:55;;;;;;;31.00;15.20;;;;;;;-1.37;100.00;96686.66;10414825;28;20192;-60
2023/03/04 06:54:55;;;;;;;43.33;18.20;;;;;;;-1.46;100.00;96677.72;10414706;28;20247;-61
2023/03/04 06:59:56;;;;;;;36.17;16.20;;;;;;;-1.45;100.00;96677.63;10413353;28;20751;-62
2023/03/04 07:04:56;;;;;;;30.03;14.03;;;;;;;-1.24;100.00;96681.66;10404046;28;20721;-60
2023/03/04 07:09:57;;;;;;;35.30;17.53;;;;;;;-1.38;100.00;96679.84;10390101;28;20662;-61
2023/03/04 07:14:57;;;;;;;44.83;17.63;;;;;;;-1.40;100.00;96679.13;10373178;28;20774;-61
2023/03/04 07:19:57;;;;;;;32.17;17.57;;;;;;;-1.29;100.00;96685.34;10372968;28;20669;-55
2023/03/04 07:24:58;;;;;;;43.60;18.70;;;;;;;-1.29;100.00;96681.94;10372665;28;20677;-59
2023/03/04 07:29:58;;;;;;;31.83;13.70;;;;;;;-1.06;100.00;96682.41;10372660;28;20710;-62
2023/03/04 07:34:58;;;;;;;45.93;14.73;;;;;;;-1.14;100.00;96683.66;10372119;28;20645;-60
2023/03/04 07:39:59;;;;;;;37.17;15.97;;;;;;;-1.18;100.00;96684.75;10377389;28;20569;-59
2023/03/04 07:45:00;;;;;;;31.10;15.13;;;;;;;-1.11;100.00;96690.38;10390500;28;20188;-59
2023/03/04 07:50:01;;;;;;;37.80;15.30;;;;;;;-1.06;100.00;96685.78;10388120;28;20247;-60
2023/03/04 07:55:01;;;;;;;28.13;14.30;;;;;;;-1.09;100.00;96675.69;10376240;28;20239;-62
2023/03/04 08:00:02;;;;;;;29.20;15.27;;;;;;;-1.04;100.00;96686.56;10410787;28;20280;-63
2023/03/04 08:05:12;;;;;;;32.77;14.50;;;;;;;-0.88;100.00;96683.13;10410692;28;20223;-60
2023/03/04 08:10:12;;;;;;;33.07;16.03;;;;;;;-0.92;100.00;96679.88;10409913;28;20755;-61
2023/03/04 08:15:13;;;;;;;33.67;15.37;;;;;;;-0.94;100.00;96679.97;10410568;28;20690;-62
2023/03/04 08:20:13;;;;;;;33.50;14.27;;;;;;;-0.88;100.00;96689.09;10408926;28;20704;-62
2023/03/04 08:25:14;;;;;;;28.60;13.10;;;;;;;-0.48;100.00;96680.84;10409831;28;20563;-63
2023/03/04 08:30:14;;;;;;;27.23;13.27;;;;;;;-0.17;100.00;96669.56;10409941;28;20835;-62
2023/03/04 08:35:15;;;;;;;30.57;13.60;;;;;;;-0.45;100.00;96671.19;10409521;28;20632;-62
2023/03/04 08:40:15;;;;;;;26.03;13.27;;;;;;;-0.18;100.00;96660.19;10409746;28;20277;-62
2023/03/04 08:45:15;;;;;;;31.13;12.70;;;;;;;-0.34;100.00;96652.53;10401398;28;20177;-63
2023/03/04 08:50:16;;;;;;;22.40;12.60;;;;;;;-0.06;100.00;96654.31;10385197;28;20225;-63
2023/03/04 08:55:16;;;;;;;24.20;12.27;;;;;;;0.52;100.00;96647.34;10387151;28;20240;-62
2023/03/04 09:00:17;;;;;;;25.73;11.63;;;;;;;0.74;100.00;96650.31;10385752;28;20741;-64
2023/03/04 09:05:17;;;;;;;23.70;10.90;;;;;;;0.75;100.00;96646.81;10385757;28;20706;-63
2023/03/04 09:10:18;;;;;;;17.23;10.07;;;;;;;0.71;100.00;96643.59;10387379;28;20306;-64
2023/03/04 09:15:18;;;;;;;23.10;10.47;;;;;;;0.50;100.00;96640.63;10402053;28;20227;-61
2023/03/04 09:20:19;;;;;;;28.80;11.53;;;;;;;0.52;100.00;96641.34;10411000;28;20278;-62
2023/03/04 09:25:20;;;;;;;21.97;11.10;;;;;;;0.68;100.00;96643.78;10403290;28;20234;-64
2023/03/04 09:30:20;;;;;;;17.73;9.90;;;;;;;0.93;100.00;96644.81;10402968;28;20319;-62
2023/03/04 09:35:21;;;;;;;22.03;10.07;;;;;;;1.14;100.00;96647.75;10374932;28;20695;-60
2023/03/04 09:40:25;;;;;;;16.97;8.37;;;;;;;0.85;100.00;96643.53;10398763;28;20221;-63
2023/03/04 09:45:33;;;;;;;18.93;9.43;;;;;;;0.94;100.00;96642.13;10383345;28;20236;-62
2023/03/04 09:50:40;;;;;;;18.53;8.70;;;;;;;1.12;100.00;96645.28;10391038;28;20209;-63
2023/03/04 09:55:42;;;;;;;17.87;8.63;;;;;;;1.03;100.00;96635.56;10379635;28;20206;-63
2023/03/04 10:00:45;;;;;;;17.93;8.37;;;;;;;1.58;100.00;96628.53;10384243;28;20269;-62
2023/03/04 10:05:53;;;;;;;11.83;7.50;;;;;;;1.69;100.00;96626.03;10372597;28;20234;-65
2023/03/04 10:10:55;;;;;;;14.10;7.67;;;;;;;1.67;100.00;96625.31;10387874;28;20223;-64
2023/03/04 10:15:57;;;;;;;20.50;10.03;;;;;;;0.59;100.00;96613.44;10413636;28;20193;-65
2023/03/04 10:21:11;;;;;;;21.90;12.03;;;;;;;0.74;100.00;96616.81;10387951;28;20211;-62
2023/03/04 10:26:19;;;;;;;32.40;17.03;;;;;;;1.45;100.00;96620.75;10371364;28;20705;-65
2023/03/04 10:31:29;;;;;;;19.13;8.30;;;;;;;0.76;100.00;96613.19;10383066;28;20233;-64
2023/03/04 10:36:29;;;;;;;76.17;34.67;;;;;;;1.27;100.00;96609.88;10371709;28;20752;-64
2023/03/04 10:41:30;;;;;;;14.63;9.10;;;;;;;0.89;100.00;96603.75;10381674;28;20247;-64
2023/03/04 10:46:31;;;;;;;12.40;7.80;;;;;;;1.01;100.00;96606.44;10383864;28;20204;-64
2023/03/04 10:51:31;;;;;;;15.53;8.20;;;;;;;1.37;100.00;96610.13;10387023;28;20311;-64
2023/03/04 10:56:44;;;;;;;12.93;7.40;;;;;;;0.91;100.00;96601.06;10391567;28;20196;-65
2023/03/04 11:01:44;;;;;;;17.07;8.33;;;;;;;0.98;100.00;96604.06;10399075;28;20675;-64
2023/03/04 11:06:45;;;;;;;15.87;7.57;;;;;;;0.86;100.00;96606.53;10373682;28;20201;-62
2023/03/04 11:11:45;;;;;;;18.47;8.00;;;;;;;1.03;100.00;96610.59;10382009;28;20237;-64
2023/03/04 11:16:55;;;;;;;15.83;6.33;;;;;;;0.92;100.00;96597.56;10374615;28;20201;-64
2023/03/04 11:21:56;;;;;;;15.27;7.40;;;;;;;0.96;100.00;96603.34;10382070;28;20231;-64
2023/03/04 11:27:05;;;;;;;22.93;8.07;;;;;;;0.96;100.00;96593.84;10371774;28;20564;-64
2023/03/04 11:32:21;;;;;;;16.73;8.10;;;;;;;0.71;100.00;96592.84;10389064;28;20237;-64
2023/03/04 11:37:35;;;;;;;16.93;8.30;;;;;;;1.32;100.00;96589.78;10407338;28;20206;-64
2023/03/04 11:42:43;;;;;;;17.00;9.17;;;;;;;0.68;100.00;96584.50;10394125;28;20212;-64
2023/03/04 11:47:58;;;;;;;15.83;8.77;;;;;;;1.36;100.00;96586.06;10387280;28;20201;-63
2023/03/04 11:53:22;;;;;;;16.13;7.70;;;;;;;1.70;100.00;96580.38;10387814;28;20227;-64
2023/03/04 11:58:52;;;;;;;16.93;7.13;;;;;;;1.99;100.00;96562.88;10415970;28;20196;-64
2023/03/04 12:04:16;;;;;;;14.67;7.00;;;;;;;2.25;100.00;96553.28;10411262;28;20223;-62
2023/03/04 12:09:39;;;;;;;15.03;6.30;;;;;;;1.82;100.00;96537.38;10411668;28;20263;-66
2023/03/04 12:15:07;;;;;;;15.90;6.50;;;;;;;1.72;100.00;96544.97;10426731;28;20698;-64
2023/03/04 12:20:15;;;;;;;15.27;8.17;;;;;;;1.33;100.00;96546.72;10396001;28;20212;-64
2023/03/04 12:25:22;;;;;;;21.27;8.60;;;;;;;1.59;100.00;96544.94;10404871;28;20192;-65
2023/03/04 12:30:45;;;;;;;15.37;6.90;;;;;;;1.29;100.00;96537.53;10389217;28;20236;-64
2023/03/04 12:36:12;;;;;;;14.20;6.77;;;;;;;1.39;100.00;96528.25;10425640;22;20248;-64
2023/03/04 12:41:12;;;;;;;9.77;7.17;;;;;;;1.23;100.00;96541.38;10400266;28;20200;-64
2023/03/04 12:46:34;;;;;;;14.07;6.33;;;;;;;1.63;100.00;96530.91;10407619;28;20213;-65
2023/03/04 12:51:43;;;;;;;17.90;8.13;;;;;;;1.49;100.00;96513.78;10411315;28;20286;-65
2023/03/04 12:56:48;;;;;;;21.97;6.47;;;;;;;1.99;100.00;96513.81;10376311;28;20213;-65
2023/03/04 13:02:20;;;;;;;14.40;5.87;;;;;;;2.09;100.00;96495.88;10384362;28;20177;-65
2023/03/04 13:07:34;;;;;;;9.77;5.60;;;;;;;1.57;100.00;96496.00;10403652;28;20699;-65
2023/03/04 13:12:55;;;;;;;13.27;6.10;;;;;;;1.54;100.00;96492.81;10397430;28;20265;-66
2023/03/04 13:17:58;;;;;;;11.70;5.27;;;;;;;1.73;100.00;96482.88;10396808;28;20661;-65
2023/03/04 13:23:12;;;;;;;9.83;4.60;;;;;;;2.07;100.00;96479.66;10395050;28;20216;-65
2023/03/04 13:28:17;;;;;;;9.03;5.20;;;;;;;1.78;100.00;96480.78;10393124;28;20193;-65
2023/03/04 13:33:20;;;;;;;11.33;5.50;;;;;;;1.81;100.00;96479.75;10376525;28;20228;-64
2023/03/04 13:38:31;;;;;;;11.80;5.80;;;;;;;1.54;100.00;96487.66;10398519;28;20212;-64
2023/03/04 13:43:38;;;;;;;17.03;5.50;;;;;;;1.95;100.00;96482.16;10379645;28;20699;-64
2023/03/04 13:48:38;;;;;;;13.07;4.70;;;;;;;2.02;100.00;96480.00;10370787;28;20248;-64
2023/03/04 13:53:41;;;;;;;13.97;4.10;;;;;;;2.06;100.00;96465.91;10386980;28;20220;-64
2023/03/04 13:58:41;;;;;;;8.40;4.43;;;;;;;2.18;100.00;96460.81;10411511;28;20892;-65
2023/03/04 14:03:42;;;;;;;4.73;3.57;;;;;;;2.41;100.00;96454.78;10411277;28;20212;-65
2023/03/04 14:08:46;;;;;;;12.63;5.83;;;;;;;2.60;100.00;96445.66;10393644;28;20196;-66
2023/03/04 14:13:46;;;;;;;6.73;4.10;;;;;;;2.48;100.00;96435.31;10397703;28;20236;-64
2023/03/04 14:19:11;;;;;;;7.07;3.90;;;;;;;2.13;100.00;96443.88;10370182;28;20201;-66
2023/03/04 14:24:14;;;;;;;9.20;5.13;;;;;;;2.43;100.00;96441.75;10368554;28;20241;-65
2023/03/04 14:29:28;;;;;;;7.50;4.23;;;;;;;2.56;100.00;96436.47;10409575;28;20185;-66
2023/03/04 14:34:35;;;;;;;9.43;5.30;;;;;;;2.20;100.00;96436.47;10409903;28;20272;-66
2023/03/04 14:39:36;;;;;;;6.73;3.67;;;;;;;2.34;100.00;96432.88;10409972;28;20192;-65
2023/03/04 14:44:42;;;;;;;8.80;4.90;;;;;;;2.16;100.00;96440.25;10409450;28;20262;-63
2023/03/04 14:49:43;;;;;;;10.37;4.00;;;;;;;2.33;100.00;96433.84;10409397;28;20681;-66
2023/03/04 14:54:59;;;;;;;10.00;4.57;;;;;;;2.41;100.00;96422.94;10409151;28;20236;-66
2023/03/04 15:00:18;;;;;;;8.40;3.93;;;;;;;2.38;100.00;96413.66;10409164;28;20189;-65
2023/03/04 15:05:28;;;;;;;6.53;4.20;;;;;;;2.13;100.00;96424.97;10389875;28;20216;-66
2023/03/04 15:10:35;;;;;;;6.23;3.27;;;;;;;2.45;100.00;96419.19;10392393;28;20181;-64
2023/03/04 15:15:40;;;;;;;8.87;3.40;;;;;;;2.44;100.00;96420.13;10390036;28;20231;-65
2023/03/04 15:20:40;;;;;;;9.57;3.67;;;;;;;2.40;100.00;96431.63;10382173;28;20615;-67
2023/03/04 15:25:40;;;;;;;7.23;3.27;;;;;;;2.38;100.00;96431.75;10372380;28;20205;-66
2023/03/04 15:30:41;;;;;;;6.90;3.30;;;;;;;2.51;100.00;96429.06;10374364;28;20205;-66
2023/03/04 15:35:48;;;;;;;4.33;3.10;;;;;;;2.46;100.00;96426.81;10392138;28;20224;-66
2023/03/04 15:40:48;;;;;;;8.53;3.40;;;;;;;2.33;100.00;96418.34;10390675;28;20193;-65
2023/03/04 15:45:49;;;;;;;3.77;2.73;;;;;;;2.35;100.00;96423.41;10388579;28;20208;-67
2023/03/04 15:50:57;;;;;;;8.50;3.17;;;;;;;2.20;100.00;96426.16;10390785;28;20181;-66
2023/03/04 15:55:57;;;;;;;4.87;3.10;;;;;;;1.93;100.00;96426.38;10410416;28;20258;-65
2023/03/04 16:00:58;;;;;;;4.70;2.97;;;;;;;1.91;100.00;96436.00;10401053;28;20193;-66
2023/03/04 16:05:58;;;;;;;7.07;3.83;;;;;;;1.93;100.00;96449.63;10386032;28;20317;-65
2023/03/04 16:10:59;;;;;;;7.60;4.17;;;;;;;1.68;100.00;96443.63;10388798;28;20195;-65
2023/03/04 16:15:59;;;;;;;12.23;4.83;;;;;;;1.61;100.00;96450.16;10390259;28;20216;-64
2023/03/04 16:21:00;;;;;;;8.43;4.13;;;;;;;1.60;100.00;96443.34;10394919;28;20212;-65
2023/03/04 16:26:01;;;;;;;10.57;4.10;;;;;;;1.66;100.00;96448.06;10433965;28;20207;-64
2023/03/04 16:31:01;;;;;;;6.77;3.77;;;;;;;1.68;100.00;96443.63;10432289;28;20258;-64
2023/03/04 16:36:34;;;;;;;6.87;3.50;;;;;;;1.59;100.00;96441.69;10379928;28;20268;-63
2023/03/04 16:41:35;;;;;;;8.50;3.73;;;;;;;1.59;100.00;96450.28;10336527;28;20597;-65
2023/03/04 16:46:36;;;;;;;9.07;4.23;;;;;;;1.60;100.00;96438.19;10370455;28;20733;-64
2023/03/04 16:51:42;;;;;;;8.80;3.97;;;;;;;1.39;100.00;96438.75;10369639;28;20220;-65
2023/03/04 16:56:42;;;;;;;14.17;3.70;;;;;;;1.33;100.00;96435.75;10369668;28;20209;-65
2023/03/04 17:01:43;;;;;;;9.57;4.40;;;;;;;1.45;100.00;96436.66;10370282;28;20197;-63
2023/03/04 17:06:43;;;;;;;12.63;4.50;;;;;;;1.37;100.00;96440.59;10369103;28;20215;-65
2023/03/04 17:11:44;;;;;;;9.17;4.43;;;;;;;1.36;100.00;96438.97;10369956;28;20220;-65
2023/03/04 17:16:44;;;;;;;11.27;4.90;;;;;;;1.22;100.00;96439.91;10369466;28;20220;-65
2023/03/04 17:21:44;;;;;;;12.93;4.60;;;;;;;1.31;100.00;96443.59;10369672;28;20326;-65
2023/03/04 17:26:45;;;;;;;12.53;4.70;;;;;;;1.32;100.00;96450.44;10369526;28;20312;-65
2023/03/04 17:31:45;;;;;;;9.77;4.10;;;;;;;1.18;100.00;96461.69;10369008;28;20621;-65
2023/03/04 17:36:46;;;;;;;8.17;3.77;;;;;;;1.25;100.00;96456.94;10369479;28;20245;-65
2023/03/04 17:41:49;;;;;;;9.17;3.00;;;;;;;1.25;100.00;96470.66;10372363;28;20243;-64
2023/03/04 17:46:49;;;;;;;7.47;3.10;;;;;;;1.25;100.00;96452.59;10376748;28;20271;-65
2023/03/04 17:51:50;;;;;;;14.60;4.60;;;;;;;1.21;100.00;96463.22;10376144;28;20703;-65
2023/03/04 17:56:50;;;;;;;9.77;4.73;;;;;;;1.11;100.00;96455.28;10376038;28;20317;-63
2023/03/04 18:01:50;;;;;;;8.67;3.13;;;;;;;1.10;100.00;96461.38;10376290;28;20611;-63
2023/03/04 18:06:51;;;;;;;15.43;8.33;;;;;;;1.13;100.00;96462.94;10375943;28;20668;-64
2023/03/04 18:11:51;;;;;;;9.17;3.93;;;;;;;0.97;100.00;96466.53;10375758;28;20687;-62
2023/03/04 18:16:51;;;;;;;6.37;2.57;;;;;;;0.91;100.00;96472.13;10375519;28;20252;-65
2023/03/04 18:21:52;;;;;;;7.77;3.03;;;;;;;0.89;100.00;96473.97;10375457;28;20626;-65
2023/03/04 18:26:53;;;;;;;13.03;4.37;;;;;;;0.88;100.00;96477.47;10375147;28;20577;-65
2023/03/04 18:31:53;;;;;;;15.97;6.80;;;;;;;0.83;100.00;96476.97;10375002;28;20224;-64
2023/03/04 18:36:54;;;;;;;11.23;4.57;;;;;;;0.76;100.00;96470.56;10396052;23;20241;-63
2023/03/04 18:41:54;;;;;;;147.90;49.50;;;;;;;0.65;100.00;96474.66;10374584;28;20199;-64
2023/03/04 18:46:55;;;;;;;13.27;4.10;;;;;;;0.59;100.00;96469.09;10372698;28;20304;-64
2023/03/04 18:51:56;;;;;;;13.63;5.40;;;;;;;0.62;100.00;96472.28;10374143;28;20221;-64
2023/03/04 18:57:01;;;;;;;14.03;2.83;;;;;;;0.65;100.00;96479.81;10373941;28;20785;-64
2023/03/04 19:02:05;;;;;;;15.43;4.73;;;;;;;0.60;100.00;96474.16;10373670;28;20576;-61
2023/03/04 19:07:05;;;;;;;11.97;3.60;;;;;;;0.66;100.00;96478.09;10373286;28;20225;-62
2023/03/04 19:12:06;;;;;;;8.50;2.73;;;;;;;0.66;100.00;96473.75;10373047;28;20593;-64
2023/03/04 19:17:06;;;;;;;9.07;2.37;;;;;;;0.61;100.00;96477.53;10372463;28;20702;-62
2023/03/04 19:22:06;;;;;;;8.13;2.67;;;;;;;0.55;100.00;96465.88;10372416;28;20192;-61
2023/03/04 19:27:07;;;;;;;7.73;3.40;;;;;;;0.49;100.00;96469.69;10372022;28;20220;-61
2023/03/04 19:32:07;;;;;;;10.57;5.23;;;;;;;0.49;100.00;96466.28;10371994;28;20219;-64
2023/03/04 19:37:08;;;;;;;11.53;3.87;;;;;;;0.40;100.00;96464.31;10371354;28;20248;-60
2023/03/04 19:42:10;;;;;;;12.33;5.37;;;;;;;0.37;100.00;96462.78;10371644;28;20303;-62
2023/03/04 19:47:10;;;;;;;11.70;3.10;;;;;;;0.44;100.00;96473.50;10371406;28;20303;-61
2023/03/04 19:52:10;;;;;;;10.30;3.07;;;;;;;0.32;100.00;96477.69;10370859;28;20227;-61
2023/03/04 19:57:11;;;;;;;13.83;3.03;;;;;;;0.28;100.00;96482.22;10371269;28;20213;-61
2023/03/04 20:02:11;;;;;;;12.57;3.50;;;;;;;0.31;100.00;96479.44;10363822;28;20204;-61
2023/03/04 20:07:11;;;;;;;14.67;2.80;;;;;;;0.23;100.00;96481.69;10370127;28;20286;-61
2023/03/04 20:12:12;;;;;;;14.53;3.50;;;;;;;0.29;100.00;96494.19;10370416;28;20228;-64
2023/03/04 20:17:13;;;;;;;14.83;4.07;;;;;;;0.22;100.00;96492.91;10370410;28;20250;-63
2023/03/04 20:22:14;;;;;;;8.13;3.50;;;;;;;0.12;100.00;96497.00;10370409;28;20188;-63
2023/03/04 20:27:14;;;;;;;14.43;4.07;;;;;;;0.09;100.00;96499.75;10369735;28;20726;-63
2023/03/04 20:32:15;;;;;;;16.23;3.50;;;;;;;0.01;100.00;96497.66;10370385;28;20755;-62
2023/03/04 20:37:15;;;;;;;11.27;3.60;;;;;;;0.01;100.00;96496.84;10369178;28;20238;-62
2023/03/04 20:42:15;;;;;;;11.40;4.30;;;;;;;-0.13;100.00;96500.28;10369817;28;20228;-62
2023/03/04 20:47:16;;;;;;;14.10;3.27;;;;;;;-0.14;100.00;96502.03;10369491;28;20216;-62
2023/03/04 20:52:17;;;;;;;13.93;3.07;;;;;;;-0.11;100.00;96501.03;10368884;28;20703;-61
2023/03/04 20:57:18;;;;;;;19.10;3.47;;;;;;;-0.14;100.00;96502.03;10369528;28;20294;-58
2023/03/04 21:02:19;;;;;;;18.53;4.40;;;;;;;-0.22;100.00;96506.84;10369013;28;20188;-62
2023/03/04 21:07:19;;;;;;;11.00;3.57;;;;;;;-0.15;100.00;96513.25;10369349;28;20654;-62
2023/03/04 21:12:20;;;;;;;18.80;4.27;;;;;;;-0.14;100.00;96498.63;10368901;28;20230;-62
2023/03/04 21:17:20;;;;;;;10.43;3.97;;;;;;;-0.12;100.00;96491.63;10373204;28;20205;-60
2023/03/04 21:22:20;;;;;;;11.33;3.77;;;;;;;-0.07;100.00;96490.44;10377328;28;20224;-62
2023/03/04 21:27:21;;;;;;;21.60;4.03;;;;;;;-0.11;100.00;96483.00;10376665;28;20285;-62
2023/03/04 21:32:25;;;;;;;13.17;3.83;;;;;;;-0.13;100.00;96480.50;10376971;28;20235;-61
2023/03/04 21:37:25;;;;;;;15.63;3.60;;;;;;;-0.13;100.00;96472.78;10358591;28;20233;-62
2023/03/04 21:42:26;;;;;;;16.57;3.60;;;;;;;-0.08;100.00;96473.31;10376481;28;20195;-62
2023/03/04 21:47:26;;;;;;;11.17;2.60;;;;;;;-0.02;100.00;96467.78;10376001;28;20210;-62
2023/03/04 21:52:26;;;;;;;13.73;2.87;;;;;;;-0.08;100.00;96462.22;10375486;28;20754;-62
2023/03/04 21:57:27;;;;;;;12.00;3.00;;;;;;;-0.16;100.00;96462.69;10376008;28;20589;-62
2023/03/04 22:02:27;;;;;;;9.00;2.60;;;;;;;-0.08;100.00;96460.44;10375386;28;20631;-62
2023/03/04 22:07:27;;;;;;;9.87;2.90;;;;;;;-0.05;100.00;96456.84;10375407;28;20542;-61
2023/03/04 22:12:28;;;;;;;10.83;3.80;;;;;;;-0.07;100.00;96466.44;10375305;28;20690;-62
2023/03/04 22:17:28;;;;;;;16.33;3.43;;;;;;;-0.18;100.00;96456.81;10375095;28;20789;-62
2023/03/04 22:22:29;;;;;;;18.50;4.00;;;;;;;-0.05;100.00;96452.53;10375597;28;20681;-61
2023/03/04 22:27:30;;;;;;;14.30;4.07;;;;;;;-0.12;100.00;96445.28;10370080;28;20209;-60
2023/03/04 22:32:30;;;;;;;16.57;4.00;;;;;;;-0.19;100.00;96439.72;10375069;28;20223;-63
2023/03/04 22:37:30;;;;;;;16.03;3.20;;;;;;;-0.11;100.00;96434.91;10374737;28;20322;-59
2023/03/04 22:42:31;;;;;;;11.03;3.33;;;;;;;-0.15;100.00;96430.88;10374814;28;20186;-60
2023/03/04 22:47:31;;;;;;;18.60;3.63;;;;;;;-0.12;100.00;96422.97;10374438;28;20219;-59
2023/03/04 22:52:31;;;;;;;13.90;2.93;;;;;;;-0.20;100.00;96426.03;10373750;28;20304;-60
2023/03/04 22:57:32;;;;;;;10.73;2.83;;;;;;;-0.19;100.00;96422.50;10373931;28;20212;-57
2023/03/04 23:02:32;;;;;;;14.07;3.73;;;;;;;-0.23;100.00;96422.81;10365850;28;20208;-62